Time;durP1;ratioP1;P1;durP2;ratioP2;P2;SDS_P1;SDS_P2;PMS_P1;PMS_P2;Temp;Humidity;BMP_temperature;BMP_pressure;BME280_temperature;BME280_humidity;BME280_pressure;Samples;Min_cycle;Max_cycle;Signal;HPM_P1;HPM_P2
2022/10/27 00:01:32;;;;;;;14.48;6.97;;;13.40;99.90;;;;;;5113566;27;20558;-71
2022/10/27 00:03:58;;;;;;;13.85;8.50;;;13.40;99.90;;;;;;5111956;27;20039;-71
2022/10/27 00:06:25;;;;;;;13.55;7.28;;;13.30;99.90;;;;;;5114869;27;20395;-71
2022/10/27 00:08:51;;;;;;;17.27;8.10;;;13.40;99.90;;;;;;5126326;27;20076;-72
2022/10/27 00:11:19;;;;;;;18.23;8.13;;;13.30;99.90;;;;;;5114952;27;20035;-71
2022/10/27 00:13:45;;;;;;;13.05;7.97;;;13.30;99.90;;;;;;5115327;27;20115;-72
2022/10/27 00:16:14;;;;;;;17.10;8.10;;;13.30;99.90;;;;;;5095767;27;20039;-71
2022/10/27 00:18:44;;;;;;;16.38;8.85;;;13.30;99.90;;;;;;5112819;27;20048;-71
2022/10/27 00:21:13;;;;;;;13.75;8.35;;;13.30;99.90;;;;;;5133435;27;20540;-72
2022/10/27 00:23:41;;;;;;;12.85;7.90;;;13.20;99.90;;;;;;5130117;27;20042;-71
2022/10/27 00:26:10;;;;;;;14.32;9.10;;;13.20;99.90;;;;;;5097850;27;20035;-72
2022/10/27 00:28:36;;;;;;;22.67;11.27;;;13.20;99.90;;;;;;5110667;27;20055;-71
2022/10/27 00:31:13;;;;;;;16.90;9.38;;;13.20;99.90;;;;;;5133533;27;20031;-72
2022/10/27 00:33:42;;;;;;;19.10;9.65;;;13.20;99.90;;;;;;5097968;28;20035;-71
2022/10/27 00:36:20;;;;;;;17.33;9.47;;;13.30;99.90;;;;;;5124280;27;20089;-72
2022/10/27 00:38:46;;;;;;;18.27;10.50;;;13.30;99.90;;;;;;5115725;28;20765;-72
2022/10/27 00:41:34;;;;;;;15.18;9.82;;;13.30;99.90;;;;;;5111493;28;20046;-73
2022/10/27 00:44:38;;;;;;;22.98;11.25;;;13.30;99.90;;;;;;5121947;28;20035;-72
2022/10/27 00:47:27;;;;;;;14.00;10.20;;;13.40;99.90;;;;;;5133025;28;20038;-72
2022/10/27 00:50:21;;;;;;;15.90;10.02;;;13.40;99.90;;;;;;5133074;27;20042;-72
2022/10/27 00:52:52;;;;;;;17.88;10.32;;;13.50;99.90;;;;;;5115060;28;20103;-72
2022/10/27 00:55:40;;;;;;;17.48;10.25;;;13.50;99.90;;;;;;5105969;28;20375;-73
2022/10/27 00:58:09;;;;;;;15.55;9.68;;;13.60;99.90;;;;;;5114758;28;20096;-71
2022/10/27 01:00:38;;;;;;;17.47;9.20;;;13.70;99.90;;;;;;5132970;28;20127;-72
2022/10/27 01:03:11;;;;;;;18.63;9.80;;;13.80;99.90;;;;;;5094855;28;20281;-72
2022/10/27 01:05:39;;;;;;;16.80;9.98;;;13.80;99.90;;;;;;5097756;28;20097;-71
2022/10/27 01:08:07;;;;;;;14.82;9.73;;;13.80;99.90;;;;;;5118268;28;20035;-72
2022/10/27 01:10:33;;;;;;;16.35;9.73;;;13.90;99.90;;;;;;5091288;28;20031;-70
2022/10/27 01:13:01;;;;;;;21.40;9.80;;;13.90;99.90;;;;;;5108845;28;20099;-72
2022/10/27 01:15:52;;;;;;;15.30;9.48;;;13.90;99.90;;;;;;5095552;28;20035;-72
2022/10/27 01:18:59;;;;;;;16.67;9.30;;;13.90;99.90;;;;;;5133024;28;20494;-72
2022/10/27 01:22:01;;;;;;;12.95;8.63;;;13.90;99.90;;;;;;5114777;28;20452;-71
2022/10/27 01:24:46;;;;;;;14.52;8.52;;;14.00;99.90;;;;;;5132755;28;20070;-72
2022/10/27 01:27:46;;;;;;;16.00;8.73;;;14.00;99.90;;;;;;5114294;28;20109;-72
2022/10/27 01:30:18;;;;;;;14.40;8.30;;;14.10;99.90;;;;;;5126977;28;20499;-73
2022/10/27 01:32:59;;;;;;;13.13;9.00;;;14.10;99.90;;;;;;5097307;28;20081;-72
2022/10/27 01:35:40;;;;;;;16.10;9.82;;;14.10;99.90;;;;;;5116903;27;20039;-72
2022/10/27 01:38:17;;;;;;;13.98;8.75;;;14.10;99.90;;;;;;5136733;27;20467;-72
2022/10/27 01:41:14;;;;;;;17.50;10.15;;;14.00;99.90;;;;;;5136421;27;20035;-72
2022/10/27 01:43:39;;;;;;;14.80;8.15;;;14.00;99.90;;;;;;5111752;27;20047;-72
2022/10/27 01:46:08;;;;;;;14.82;8.93;;;14.00;99.90;;;;;;5115769;27;20054;-72
2022/10/27 01:48:36;;;;;;;15.68;8.48;;;14.00;99.90;;;;;;5101158;27;20103;-72
2022/10/27 01:51:03;;;;;;;13.02;8.57;;;14.00;99.90;;;;;;5136232;27;20554;-72
2022/10/27 01:53:31;;;;;;;12.82;8.68;;;14.00;99.90;;;;;;5118105;27;20404;-72
2022/10/27 01:56:03;;;;;;;17.27;9.05;;;14.10;99.90;;;;;;5136593;27;20043;-72
2022/10/27 01:58:56;;;;;;;15.40;8.65;;;14.10;99.90;;;;;;5100654;27;20043;-73
2022/10/27 02:01:40;;;;;;;12.68;8.60;;;14.20;99.90;;;;;;5136242;27;20475;-72
2022/10/27 02:04:29;;;;;;;19.00;9.25;;;14.20;99.90;;;;;;5136321;27;20387;-71
2022/10/27 02:07:07;;;;;;;14.00;8.32;;;14.20;99.90;;;;;;5117723;27;20046;-71
2022/10/27 02:09:48;;;;;;;13.38;7.88;;;14.20;99.90;;;;;;5100719;27;20507;-71
2022/10/27 02:12:30;;;;;;;12.52;7.40;;;14.10;99.90;;;;;;5136020;27;20066;-72
2022/10/27 02:14:58;;;;;;;14.98;7.80;;;14.10;99.90;;;;;;5115217;27;20039;-72
2022/10/27 02:17:29;;;;;;;13.13;7.22;;;14.00;99.90;;;;;;5100853;27;20058;-71
2022/10/27 02:19:58;;;;;;;16.85;8.18;;;14.00;99.90;;;;;;5135985;27;20047;-72
2022/10/27 02:22:27;;;;;;;17.23;8.15;;;14.00;99.90;;;;;;5135817;27;20050;-71
2022/10/27 02:24:53;;;;;;;13.57;8.48;;;14.00;99.90;;;;;;5117602;27;20038;-72
2022/10/27 02:27:35;;;;;;;12.15;8.00;;;14.00;99.90;;;;;;5135755;27;20551;-72
2022/10/27 02:30:03;;;;;;;12.57;8.40;;;14.00;99.90;;;;;;5117264;27;20110;-71
2022/10/27 02:32:30;;;;;;;15.32;8.07;;;14.00;99.90;;;;;;5108563;27;20495;-72
2022/10/27 02:34:57;;;;;;;14.70;7.85;;;14.00;99.90;;;;;;5117156;27;20035;-72
2022/10/27 02:37:36;;;;;;;14.63;8.35;;;14.00;99.90;;;;;;5116989;27;20055;-72
2022/10/27 02:40:02;;;;;;;11.95;7.43;;;13.90;99.90;;;;;;5118205;27;20043;-70
2022/10/27 02:42:28;;;;;;;18.40;9.00;;;13.90;99.90;;;;;;5097931;28;20388;-70
2022/10/27 02:44:54;;;;;;;18.98;8.40;;;13.80;99.90;;;;;;5135513;27;20042;-72
2022/10/27 02:47:20;;;;;;;13.82;8.05;;;13.80;99.90;;;;;;5132240;27;20373;-72
2022/10/27 02:49:45;;;;;;;14.52;8.80;;;13.70;99.90;;;;;;5129417;27;20050;-72
2022/10/27 02:52:12;;;;;;;16.38;9.05;;;13.70;99.90;;;;;;5135379;27;20035;-72
2022/10/27 02:54:38;;;;;;;16.52;8.57;;;13.70;99.90;;;;;;5135172;27;20035;-72
2022/10/27 02:57:04;;;;;;;11.95;8.23;;;13.70;99.90;;;;;;5117066;27;20043;-71
2022/10/27 02:59:30;;;;;;;14.50;8.38;;;13.60;99.90;;;;;;5114587;27;20575;-72
2022/10/27 03:01:55;;;;;;;14.20;7.85;;;13.60;99.90;;;;;;5119769;27;20101;-71
2022/10/27 03:04:21;;;;;;;16.33;8.20;;;13.60;99.90;;;;;;5113315;27;20046;-71
2022/10/27 03:06:47;;;;;;;17.98;9.55;;;13.60;99.90;;;;;;5113956;27;20040;-73
2022/10/27 03:09:13;;;;;;;15.65;8.32;;;13.60;99.90;;;;;;5119937;27;20096;-72
2022/10/27 03:11:38;;;;;;;12.50;7.60;;;13.60;99.90;;;;;;5107088;27;20056;-71
2022/10/27 03:14:04;;;;;;;13.50;7.55;;;13.50;99.90;;;;;;5114245;28;20042;-73
2022/10/27 03:16:30;;;;;;;15.45;7.93;;;13.50;99.90;;;;;;5111965;28;20043;-72
2022/10/27 03:18:55;;;;;;;13.07;8.05;;;13.50;99.90;;;;;;5108074;27;20071;-72
2022/10/27 03:21:21;;;;;;;11.48;7.65;;;13.50;99.90;;;;;;5134664;27;20523;-72
2022/10/27 03:23:47;;;;;;;13.15;8.13;;;13.40;99.90;;;;;;5134778;27;20031;-72
2022/10/27 03:26:13;;;;;;;17.25;7.95;;;13.40;99.90;;;;;;5134289;27;20043;-71
2022/10/27 03:28:39;;;;;;;16.02;8.25;;;13.40;99.90;;;;;;5116386;27;20133;-74
2022/10/27 03:31:05;;;;;;;16.73;7.85;;;13.40;99.90;;;;;;5140587;27;20644;-74
2022/10/27 03:33:31;;;;;;;14.88;8.30;;;13.40;99.90;;;;;;5119409;27;20141;-71
2022/10/27 03:35:58;;;;;;;15.40;8.63;;;13.50;99.90;;;;;;5106359;27;20063;-73
2022/10/27 03:38:23;;;;;;;15.52;9.05;;;13.50;99.90;;;;;;5134376;27;20066;-70
2022/10/27 03:40:49;;;;;;;16.10;8.35;;;13.50;99.90;;;;;;5116104;27;20406;-72
2022/10/27 03:43:15;;;;;;;13.43;9.30;;;13.50;99.90;;;;;;5116077;27;20483;-72
2022/10/27 03:45:41;;;;;;;18.77;8.35;;;13.50;99.90;;;;;;5131953;27;20422;-70
2022/10/27 03:48:10;;;;;;;17.83;8.68;;;13.50;99.90;;;;;;5115392;27;20043;-71
2022/10/27 03:50:37;;;;;;;19.58;9.85;;;13.50;99.90;;;;;;5115796;27;20042;-73
2022/10/27 03:53:03;;;;;;;17.02;9.40;;;13.50;99.90;;;;;;5115767;27;20122;-74
2022/10/27 03:55:30;;;;;;;15.07;9.07;;;13.50;99.90;;;;;;5125654;27;20110;-75
2022/10/27 03:57:56;;;;;;;17.80;9.65;;;13.50;99.90;;;;;;5120304;27;20049;-73
2022/10/27 04:00:22;;;;;;;16.27;9.35;;;13.40;99.90;;;;;;5110620;27;20070;-73
2022/10/27 04:02:48;;;;;;;20.40;11.45;;;13.40;99.90;;;;;;5134019;27;20394;-74
2022/10/27 04:05:14;;;;;;;21.80;9.82;;;13.40;99.90;;;;;;5133935;27;20114;-73
2022/10/27 04:07:40;;;;;;;18.10;10.10;;;13.30;99.90;;;;;;5105917;27;20053;-74
2022/10/27 04:10:06;;;;;;;15.43;10.50;;;13.30;99.90;;;;;;5115381;28;20043;-73
2022/10/27 04:12:31;;;;;;;15.77;9.13;;;13.30;99.90;;;;;;5133931;27;20054;-74
2022/10/27 04:14:57;;;;;;;22.05;10.00;;;13.20;99.90;;;;;;5113519;27;20114;-73
2022/10/27 04:17:23;;;;;;;18.92;10.00;;;13.20;99.90;;;;;;5119704;27;20117;-74
2022/10/27 04:19:48;;;;;;;12.90;9.05;;;13.20;99.90;;;;;;5103885;27;20039;-74
2022/10/27 04:22:14;;;;;;;15.88;9.10;;;13.10;99.90;;;;;;5113278;28;20111;-73
2022/10/27 04:24:40;;;;;;;19.35;9.57;;;13.10;99.90;;;;;;5098372;27;20491;-73
2022/10/27 04:27:06;;;;;;;20.67;11.07;;;13.00;99.90;;;;;;5100447;28;20518;-73
2022/10/27 04:29:32;;;;;;;17.55;9.35;;;13.00;99.90;;;;;;5103724;27;20418;-73
2022/10/27 04:31:58;;;;;;;19.40;10.27;;;13.00;99.90;;;;;;5142482;27;20031;-73
2022/10/27 04:34:24;;;;;;;20.60;10.05;;;13.00;99.90;;;;;;5089846;28;20050;-73
2022/10/27 04:36:49;;;;;;;20.38;10.30;;;13.00;99.90;;;;;;5115169;28;20055;-73
2022/10/27 04:39:16;;;;;;;19.25;10.13;;;13.00;99.90;;;;;;5124075;28;20062;-73
2022/10/27 04:41:42;;;;;;;17.73;10.80;;;13.00;99.90;;;;;;5121249;27;20047;-73
2022/10/27 04:44:08;;;;;;;17.88;10.88;;;13.00;99.90;;;;;;5114368;28;20051;-74
2022/10/27 04:46:34;;;;;;;16.63;9.27;;;13.00;99.90;;;;;;5099882;28;20046;-73
2022/10/27 04:49:00;;;;;;;15.48;9.48;;;13.00;99.90;;;;;;5132240;28;20028;-74
2022/10/27 04:51:25;;;;;;;15.23;9.43;;;13.00;99.90;;;;;;5113839;27;20046;-73
2022/10/27 04:53:51;;;;;;;21.20;10.43;;;13.00;99.90;;;;;;5094830;28;20038;-73
2022/10/27 04:56:17;;;;;;;25.00;10.68;;;13.10;99.90;;;;;;5137987;27;20479;-73
2022/10/27 04:58:43;;;;;;;18.70;10.20;;;13.10;99.90;;;;;;5143447;27;20402;-73
2022/10/27 05:01:11;;;;;;;18.02;10.57;;;13.20;99.90;;;;;;5117387;27;20519;-70
2022/10/27 05:03:37;;;;;;;19.27;10.25;;;13.20;99.90;;;;;;5089325;28;20050;-73
2022/10/27 05:06:03;;;;;;;19.23;10.23;;;13.30;99.90;;;;;;5112579;28;20039;-74
2022/10/27 05:08:29;;;;;;;17.13;10.00;;;13.30;99.90;;;;;;5132290;27;20095;-74
2022/10/27 05:10:55;;;;;;;18.80;10.18;;;13.40;99.90;;;;;;5120367;27;20039;-73
2022/10/27 05:13:21;;;;;;;17.88;10.10;;;13.40;99.90;;;;;;5132770;27;20038;-74
2022/10/27 05:15:47;;;;;;;19.17;10.27;;;13.40;99.90;;;;;;5096136;28;20035;-73
2022/10/27 05:18:13;;;;;;;12.00;9.00;;;13.50;99.90;;;;;;5115332;27;20125;-71
2022/10/27 05:20:38;;;;;;;22.63;10.52;;;13.50;99.90;;;;;;5126924;27;20513;-74
2022/10/27 05:23:04;;;;;;;17.33;9.13;;;13.60;99.90;;;;;;5132313;27;20043;-73
2022/10/27 05:25:30;;;;;;;16.77;9.13;;;13.60;99.90;;;;;;5111393;27;20043;-73
2022/10/27 05:28:07;;;;;;;15.23;9.75;;;13.70;99.90;;;;;;5127219;27;20471;-73
2022/10/27 05:30:33;;;;;;;15.93;10.50;;;13.70;99.90;;;;;;5136768;27;20447;-74
2022/10/27 05:32:59;;;;;;;15.63;9.38;;;13.70;99.90;;;;;;5137237;27;20124;-73
2022/10/27 05:35:24;;;;;;;12.93;8.80;;;13.70;99.90;;;;;;5135866;27;20163;-72
2022/10/27 05:37:50;;;;;;;16.33;9.35;;;13.70;99.90;;;;;;5100592;27;20050;-74
2022/10/27 05:40:16;;;;;;;15.13;10.18;;;13.80;99.90;;;;;;5113430;28;20036;-72
2022/10/27 05:42:50;;;;;;;20.40;9.85;;;13.80;99.90;;;;;;5114574;27;20516;-73
2022/10/27 05:45:16;;;;;;;18.67;9.68;;;13.80;99.90;;;;;;5134642;27;20047;-73
2022/10/27 05:47:41;;;;;;;15.13;9.90;;;13.80;99.90;;;;;;5118043;27;20149;-72
2022/10/27 05:50:07;;;;;;;15.55;9.05;;;13.90;99.90;;;;;;5118162;27;20117;-74
2022/10/27 05:52:33;;;;;;;15.63;9.82;;;13.90;99.90;;;;;;5136829;27;20039;-70
2022/10/27 05:54:59;;;;;;;16.55;9.77;;;13.90;99.90;;;;;;5118083;27;20103;-72
2022/10/27 05:57:24;;;;;;;15.50;10.05;;;13.90;99.90;;;;;;5110750;27;20039;-73
2022/10/27 05:59:50;;;;;;;14.00;9.23;;;13.90;99.90;;;;;;5112965;27;20086;-72
2022/10/27 06:02:16;;;;;;;16.52;10.23;;;13.90;99.90;;;;;;5102916;27;20451;-73
2022/10/27 06:04:42;;;;;;;13.88;10.52;;;14.00;99.90;;;;;;5101158;27;20066;-73
2022/10/27 06:07:07;;;;;;;16.92;10.40;;;13.90;99.90;;;;;;5108626;27;20079;-71
2022/10/27 06:09:33;;;;;;;16.40;10.48;;;13.90;99.90;;;;;;5117745;27;20074;-74
2022/10/27 06:11:59;;;;;;;15.63;10.05;;;13.90;99.90;;;;;;5117639;27;20122;-73
2022/10/27 06:14:25;;;;;;;19.67;11.23;;;13.90;99.90;;;;;;5125538;27;20039;-74
2022/10/27 06:16:50;;;;;;;21.33;10.38;;;13.80;99.90;;;;;;5136309;27;20042;-71
2022/10/27 06:19:16;;;;;;;21.27;11.90;;;13.80;99.90;;;;;;5114698;27;20497;-71
2022/10/27 06:21:42;;;;;;;17.10;10.68;;;13.80;99.90;;;;;;5139422;27;20071;-70
2022/10/27 06:24:08;;;;;;;19.15;10.50;;;13.70;99.90;;;;;;5102731;27;20043;-73
2022/10/27 06:26:34;;;;;;;17.20;11.25;;;13.70;99.90;;;;;;5117470;27;20044;-70
2022/10/27 06:29:00;;;;;;;19.15;11.10;;;13.70;99.90;;;;;;5135802;27;20080;-69
2022/10/27 06:31:25;;;;;;;18.60;11.60;;;13.70;99.90;;;;;;5135835;27;20039;-72
2022/10/27 06:33:51;;;;;;;17.40;9.93;;;13.70;99.90;;;;;;5135107;27;20386;-71
2022/10/27 06:36:17;;;;;;;21.35;11.05;;;13.70;99.90;;;;;;5079605;28;20048;-70
2022/10/27 06:38:43;;;;;;;15.52;9.65;;;13.70;99.90;;;;;;5111440;27;20049;-71
2022/10/27 06:41:08;;;;;;;15.63;10.90;;;13.70;99.90;;;;;;5135387;27;20047;-70
2022/10/27 06:43:34;;;;;;;13.57;9.40;;;13.70;99.90;;;;;;5116858;27;20043;-71
2022/10/27 06:46:00;;;;;;;15.20;9.65;;;13.60;99.90;;;;;;5133276;27;20058;-69
2022/10/27 06:48:25;;;;;;;16.38;8.95;;;13.60;99.90;;;;;;5121258;27;20079;-71
2022/10/27 06:50:54;;;;;;;15.07;9.38;;;13.70;99.90;;;;;;5096486;28;20050;-73
2022/10/27 06:53:20;;;;;;;13.85;8.60;;;13.70;99.90;;;;;;5097680;28;20040;-70
2022/10/27 06:55:46;;;;;;;10.15;7.97;;;13.70;99.90;;;;;;5096451;28;20039;-71
2022/10/27 06:58:12;;;;;;;14.02;8.48;;;13.70;99.90;;;;;;5109222;27;20385;-71
2022/10/27 07:00:38;;;;;;;12.38;7.80;;;13.80;99.90;;;;;;5133036;27;20413;-67
2022/10/27 07:03:08;;;;;;;10.60;7.72;;;13.80;99.90;;;;;;5114694;27;20067;-72
2022/10/27 07:05:34;;;;;;;;;;;13.90;99.90;;;;;;5135466;27;20601;-69
2022/10/27 07:08:00;;;;;;;8.55;6.60;;;13.90;99.90;;;;;;5134908;27;19976;-70
2022/10/27 07:10:26;;;;;;;9.00;7.00;;;14.00;99.90;;;;;;5116421;27;20036;-70
2022/10/27 07:12:53;;;;;;;11.02;6.50;;;14.00;99.90;;;;;;5116337;27;20035;-69
2022/10/27 07:15:19;;;;;;;13.77;6.45;;;14.00;99.90;;;;;;5132611;27;20391;-70
2022/10/27 07:17:45;;;;;;;11.32;6.93;;;14.10;99.90;;;;;;5116268;27;20043;-70
2022/10/27 07:20:11;;;;;;;12.73;7.65;;;14.10;99.90;;;;;;5099280;27;20065;-70
2022/10/27 07:22:40;;;;;;;10.27;5.90;;;14.20;99.90;;;;;;5116149;27;20045;-69
2022/10/27 07:25:06;;;;;;;9.48;5.75;;;14.20;99.90;;;;;;5116212;27;20054;-71
2022/10/27 07:27:33;;;;;;;10.40;6.20;;;14.30;99.90;;;;;;5134445;27;20490;-68
2022/10/27 07:29:58;;;;;;;10.85;5.85;;;14.30;99.90;;;;;;5134593;27;20080;-71
2022/10/27 07:32:24;;;;;;;9.85;5.40;;;14.30;99.90;;;;;;5133429;27;20043;-69
2022/10/27 07:34:50;;;;;;;8.05;5.40;;;14.30;99.90;;;;;;5116212;27;20042;-70
2022/10/27 07:37:16;;;;;;;13.32;5.40;;;14.40;99.90;;;;;;5134243;27;20186;-69
2022/10/27 07:39:41;;;;;;;12.38;5.20;;;14.40;99.90;;;;;;5115881;27;20076;-69
2022/10/27 07:42:07;;;;;;;9.13;5.00;;;14.50;99.90;;;;;;5134561;27;20092;-71
2022/10/27 07:44:33;;;;;;;10.43;6.15;;;14.50;99.90;;;;;;5105236;27;20043;-72
2022/10/27 07:46:59;;;;;;;11.77;5.03;;;14.60;99.90;;;;;;5132841;27;20060;-71
2022/10/27 07:49:28;;;;;;;8.05;4.85;;;14.60;99.90;;;;;;5132695;27;20039;-72
2022/10/27 07:51:54;;;;;;;10.63;5.15;;;14.70;99.90;;;;;;5127478;27;20031;-71
2022/10/27 07:54:22;;;;;;;8.23;5.05;;;14.70;99.90;;;;;;5118992;27;20068;-69
2022/10/27 07:56:48;;;;;;;10.25;5.53;;;14.80;99.90;;;;;;5112397;27;20114;-69
2022/10/27 07:59:16;;;;;;;9.88;5.35;;;14.90;99.90;;;;;;5121844;27;20039;-69
2022/10/27 08:01:43;;;;;;;11.60;5.18;;;14.90;99.90;;;;;;5132343;27;20375;-72
2022/10/27 08:04:09;;;;;;;9.07;5.15;;;14.90;99.90;;;;;;5112186;27;20047;-71
2022/10/27 08:06:38;;;;;;;8.38;5.43;;;15.00;99.90;;;;;;5111128;27;20053;-73
2022/10/27 08:09:04;;;;;;;9.18;4.65;;;15.00;99.90;;;;;;5090389;28;20076;-71
2022/10/27 08:11:31;;;;;;;11.32;4.72;;;15.00;99.90;;;;;;5094598;28;20039;-71
2022/10/27 08:13:58;;;;;;;15.25;5.65;;;15.10;99.90;;;;;;5128201;27;20084;-71
2022/10/27 08:16:24;;;;;;;9.02;5.00;;;15.10;99.90;;;;;;5095940;27;20110;-72
2022/10/27 08:18:51;;;;;;;7.82;4.70;;;15.10;99.90;;;;;;5118817;27;20111;-72
2022/10/27 08:21:17;;;;;;;8.00;4.40;;;15.20;99.90;;;;;;5111637;27;20031;-72
2022/10/27 08:23:43;;;;;;;8.10;4.63;;;15.40;99.90;;;;;;5098029;27;20027;-72
2022/10/27 08:26:09;;;;;;;9.77;4.70;;;15.50;99.90;;;;;;5107010;27;20032;-69
2022/10/27 08:28:37;;;;;;;10.27;4.88;;;15.70;99.90;;;;;;5114577;28;20039;-72
2022/10/27 08:31:06;;;;;;;8.63;4.88;;;15.90;99.90;;;;;;5133035;27;20035;-73
2022/10/27 08:33:32;;;;;;;8.13;4.18;;;16.10;99.90;;;;;;5107651;28;20047;-73
2022/10/27 08:36:01;;;;;;;8.68;4.88;;;16.30;99.90;;;;;;5119311;27;20043;-72
2022/10/27 08:38:31;;;;;;;8.15;4.53;;;16.50;99.90;;;;;;5111765;28;20484;-72
2022/10/27 08:41:02;;;;;;;;;;;16.70;99.90;;;;;;5098666;28;20035;-69
2022/10/27 08:43:50;;;;;;;7.72;3.67;;;17.20;99.90;;;;;;5115960;27;20297;-72
2022/10/27 08:46:49;;;;;;;11.10;3.95;;;17.80;99.90;;;;;;5109430;27;20399;-72
2022/10/27 08:49:31;;;;;;;6.20;3.50;;;18.50;99.90;;;;;;5115775;27;20054;-73
2022/10/27 08:52:08;;;;;;;7.35;3.63;;;18.90;99.90;;;;;;5118306;27;20096;-68
2022/10/27 08:54:42;;;;;;;7.82;4.18;;;19.00;99.90;;;;;;5136219;27;20115;-70
2022/10/27 08:57:23;;;;;;;9.80;3.88;;;19.10;99.90;;;;;;5137312;27;20402;-70
2022/10/27 08:59:54;;;;;;;6.90;3.60;;;19.10;99.90;;;;;;5118623;27;20039;-70
2022/10/27 09:03:16;;;;;;;10.32;5.03;;;19.10;99.90;;;;;;5120791;27;20112;-73
2022/10/27 09:06:13;;;;;;;9.93;4.05;;;19.20;99.90;;;;;;5117015;27;20039;-73
2022/10/27 09:08:56;;;;;;;8.55;4.13;;;19.30;99.90;;;;;;5116776;27;20116;-73
2022/10/27 09:11:44;;;;;;;8.35;4.65;;;19.10;99.90;;;;;;5129420;27;20078;-72
2022/10/27 09:14:40;;;;;;;8.10;4.05;;;19.00;99.90;;;;;;5118046;27;20035;-72
2022/10/27 09:17:15;;;;;;;7.97;4.55;;;19.20;99.90;;;;;;5105136;27;20051;-72
2022/10/27 09:19:49;;;;;;;10.52;4.60;;;19.40;99.90;;;;;;5109476;27;20430;-72
2022/10/27 09:22:17;;;;;;;6.97;3.58;;;19.50;99.90;;;;;;5118244;27;20082;-71
2022/10/27 09:24:53;;;;;;;6.82;3.53;;;19.30;99.90;;;;;;5117643;27;20054;-69
2022/10/27 09:27:20;;;;;;;8.77;3.88;;;19.10;99.90;;;;;;5117125;27;20047;-70
2022/10/27 09:29:50;;;;;;;11.88;4.95;;;18.70;99.90;;;;;;5136396;27;20046;-71
2022/10/27 09:32:23;;;;;;;10.43;4.80;;;18.50;99.90;;;;;;5120999;27;20043;-71
2022/10/27 09:35:06;;;;;;;9.30;4.00;;;18.30;99.90;;;;;;5134158;27;20417;-70
2022/10/27 09:37:39;;;;;;;7.22;4.30;;;18.00;99.90;;;;;;5115225;27;20055;-69
2022/10/27 09:40:13;;;;;;;9.95;4.68;;;17.90;99.90;;;;;;5141971;27;20047;-72
2022/10/27 09:42:40;;;;;;;7.30;3.83;;;17.90;99.90;;;;;;5136220;27;20039;-70
2022/10/27 09:45:20;;;;;;;10.38;4.10;;;18.00;99.90;;;;;;5091397;27;20491;-70
2022/10/27 09:48:18;;;;;;;9.63;3.78;;;18.00;99.90;;;;;;5129659;27;20417;-72
2022/10/27 09:50:47;;;;;;;8.45;3.40;;;18.00;99.90;;;;;;5112070;27;20048;-71
2022/10/27 09:53:36;;;;;;;9.82;3.88;;;18.00;99.90;;;;;;5132903;27;20053;-72
2022/10/27 09:56:03;;;;;;;11.63;5.05;;;18.10;99.90;;;;;;5133661;27;20104;-72
2022/10/27 09:58:29;;;;;;;11.57;3.55;;;18.20;99.90;;;;;;5133201;27;20085;-73
2022/10/27 10:01:00;;;;;;;5.47;3.20;;;18.30;99.90;;;;;;5133481;27;20544;-71
2022/10/27 10:03:26;;;;;;;7.40;3.20;;;18.60;99.90;;;;;;5115263;28;20059;-72
2022/10/27 10:06:04;;;;;;;8.05;3.22;;;18.80;99.90;;;;;;5114056;28;20043;-69
2022/10/27 10:08:34;;;;;;;6.65;3.63;;;19.00;99.90;;;;;;5131696;27;20035;-67
2022/10/27 10:11:18;;;;;;;9.18;3.80;;;19.00;99.90;;;;;;5134623;27;20422;-73
2022/10/27 10:13:58;;;;;;;10.23;2.97;;;19.00;99.90;;;;;;5135078;27;20039;-70
2022/10/27 10:16:27;;;;;;;8.23;3.25;;;19.00;99.90;;;;;;5115397;27;20491;-73
2022/10/27 10:19:06;;;;;;;6.00;2.85;;;19.00;99.90;;;;;;5129487;27;20043;-74
2022/10/27 10:22:01;;;;;;;5.78;2.85;;;19.20;99.90;;;;;;5134254;27;20463;-72
2022/10/27 10:24:35;;;;;;;8.25;3.00;;;19.40;99.90;;;;;;5112303;27;20039;-73
2022/10/27 10:27:28;;;;;;;6.78;3.00;;;19.60;99.90;;;;;;5134049;27;20092;-70
2022/10/27 10:29:54;;;;;;;5.00;2.42;;;19.90;99.90;;;;;;5128157;27;20426;-70
2022/10/27 10:32:34;;;;;;;8.45;3.00;;;20.10;99.90;;;;;;5133194;27;20039;-69
2022/10/27 10:35:00;;;;;;;4.60;2.25;;;20.10;99.90;;;;;;5126646;27;20040;-74
2022/10/27 10:37:26;;;;;;;7.10;2.10;;;20.20;99.90;;;;;;5133750;27;20392;-71
2022/10/27 10:39:52;;;;;;;5.65;2.58;;;20.30;99.90;;;;;;5133112;27;20073;-71
2022/10/27 10:42:18;;;;;;;7.40;3.00;;;20.20;99.90;;;;;;5132679;27;20416;-72
2022/10/27 10:44:44;;;;;;;6.30;2.60;;;20.50;99.90;;;;;;5124948;27;20036;-68
2022/10/27 10:47:23;;;;;;;6.35;2.50;;;20.70;99.90;;;;;;5114292;28;20105;-68
2022/10/27 10:49:59;;;;;;;6.10;2.33;;;20.70;99.90;;;;;;5129540;27;20039;-68
2022/10/27 10:52:36;;;;;;;6.80;2.10;;;20.60;99.90;;;;;;5133747;27;20100;-68
2022/10/27 10:55:10;;;;;;;7.28;3.72;;;20.50;99.90;;;;;;5133963;27;20039;-68
2022/10/27 10:57:44;;;;;;;5.22;2.70;;;20.60;99.90;;;;;;5133625;27;20078;-70
2022/10/27 11:00:19;;;;;;;4.75;1.80;;;20.70;99.90;;;;;;5133784;27;20483;-71
2022/10/27 11:03:08;;;;;;;4.43;1.85;;;21.00;99.90;;;;;;5100261;28;20491;-69
2022/10/27 11:05:35;;;;;;;5.07;1.88;;;20.90;99.90;;;;;;5111284;27;20050;-68
2022/10/27 11:08:03;;;;;;;5.70;2.10;;;20.50;99.90;;;;;;5133524;27;20046;-70
2022/10/27 11:10:34;;;;;;;4.63;1.88;;;20.10;99.90;;;;;;5134941;27;20071;-70
2022/10/27 11:13:05;;;;;;;6.50;2.40;;;19.70;99.90;;;;;;5134953;27;20039;-73
2022/10/27 11:15:43;;;;;;;5.78;2.10;;;19.50;99.90;;;;;;5131146;27;20130;-70
2022/10/27 11:18:12;;;;;;;5.28;1.90;;;19.40;99.90;;;;;;5133268;27;20066;-70
2022/10/27 11:20:38;;;;;;;3.88;2.05;;;19.20;99.90;;;;;;5133275;27;20122;-70
2022/10/27 11:23:19;;;;;;;6.93;1.73;;;19.20;99.90;;;;;;5133411;27;20130;-71
2022/10/27 11:25:47;;;;;;;7.40;1.92;;;19.20;99.90;;;;;;5133520;27;20047;-70
2022/10/27 11:28:31;;;;;;;5.35;2.25;;;19.30;99.90;;;;;;5134289;27;20045;-71
2022/10/27 11:31:20;;;;;;;4.82;2.03;;;19.30;99.90;;;;;;5134525;27;20044;-71
2022/10/27 11:33:46;;;;;;;5.40;1.73;;;19.50;99.90;;;;;;5134612;27;20039;-72
2022/10/27 11:36:19;;;;;;;7.40;1.80;;;19.60;99.90;;;;;;5132951;27;20384;-69
2022/10/27 11:39:00;;;;;;;4.80;1.90;;;19.60;99.90;;;;;;5133066;27;20057;-68
2022/10/27 11:41:48;;;;;;;4.90;1.77;;;19.70;99.90;;;;;;5134413;27;20098;-70
2022/10/27 11:44:49;;;;;;;4.78;1.83;;;19.80;99.90;;;;;;5132905;27;20077;-69
2022/10/27 11:47:25;;;;;;;5.75;2.17;;;20.00;99.90;;;;;;5085397;27;20047;-71
2022/10/27 11:50:17;;;;;;;5.65;1.75;;;20.20;99.90;;;;;;5134087;27;20123;-69
2022/10/27 11:52:48;;;;;;;6.78;2.05;;;20.50;99.90;;;;;;5134173;27;20119;-70
2022/10/27 11:55:18;;;;;;;6.07;2.08;;;20.70;99.90;;;;;;5134018;27;20121;-69
2022/10/27 11:57:47;;;;;;;5.78;1.73;;;21.30;99.90;;;;;;5134072;27;20404;-69
2022/10/27 12:00:25;;;;;;;4.30;2.03;;;21.40;99.90;;;;;;5132839;27;20103;-73
2022/10/27 12:03:09;;;;;;;5.80;1.92;;;21.40;99.90;;;;;;5117364;27;20101;-69
2022/10/27 12:05:46;;;;;;;5.50;1.80;;;21.40;99.90;;;;;;5113313;28;20127;-69
2022/10/27 12:08:24;;;;;;;3.97;1.73;;;21.10;99.90;;;;;;5125520;27;20110;-68
2022/10/27 12:11:04;;;;;;;5.85;1.63;;;20.80;99.90;;;;;;5115276;27;20046;-68
2022/10/27 12:13:44;;;;;;;3.42;1.40;;;20.70;99.90;;;;;;5132263;27;20050;-70
2022/10/27 12:16:40;;;;;;;7.70;1.83;;;20.50;99.90;;;;;;5129797;27;20542;-72
2022/10/27 12:19:28;;;;;;;4.07;1.30;;;20.20;99.90;;;;;;5134235;27;20566;-71
2022/10/27 12:22:02;;;;;;;5.15;1.33;;;19.90;99.90;;;;;;5132399;27;20035;-69
2022/10/27 12:24:35;;;;;;;4.50;1.45;;;19.70;99.90;;;;;;5132242;27;20039;-71
2022/10/27 12:27:19;;;;;;;6.13;1.63;;;19.60;99.90;;;;;;5131923;27;20074;-70
2022/10/27 12:29:53;;;;;;;4.28;1.50;;;19.50;99.90;;;;;;5133623;27;20043;-68
2022/10/27 12:32:32;;;;;;;3.80;1.50;;;19.40;99.90;;;;;;5115002;28;20534;-69
2022/10/27 12:35:13;;;;;;;6.20;1.27;;;19.50;99.90;;;;;;5132564;27;20035;-72
2022/10/27 12:38:04;;;;;;;6.03;1.63;;;19.50;99.90;;;;;;5133546;27;20043;-70
2022/10/27 12:40:32;;;;;;;3.17;1.20;;;19.60;99.90;;;;;;5131932;27;20100;-71
2022/10/27 12:43:45;;;;;;;7.78;1.70;;;19.50;99.90;;;;;;5132490;28;20382;-74
2022/10/27 12:46:42;;;;;;;3.97;1.58;;;19.50;99.90;;;;;;5014393;28;20041;-71
2022/10/27 12:49:26;;;;;;;6.55;1.50;;;19.50;99.90;;;;;;5033087;28;20086;-71
2022/10/27 12:52:18;;;;;;;7.05;1.40;;;19.50;99.90;;;;;;5109356;28;20126;-73
2022/10/27 12:55:05;;;;;;;4.90;1.17;;;19.40;99.90;;;;;;5115228;28;20039;-72
2022/10/27 12:57:49;;;;;;;6.80;1.52;;;19.40;99.90;;;;;;5132374;28;20050;-69
2022/10/27 13:00:18;;;;;;;5.07;1.40;;;19.40;99.90;;;;;;5132201;28;20088;-67
2022/10/27 13:03:02;;;;;;;6.63;1.48;;;19.40;99.90;;;;;;5115952;28;20071;-71
2022/10/27 13:06:03;;;;;;;7.47;1.90;;;19.40;99.90;;;;;;5121348;28;20043;-72